sensor_id;sensor_type;location;lat;lon;timestamp;P1;durP1;ratioP1;P2;durP2;ratioP2
36353;SDS011;22383;51.114;13.666;2023-05-10T00:01:58;2.55;;;1.30;;
36353;SDS011;22383;51.114;13.666;2023-05-10T00:04:31;2.35;;;1.30;;
36353;SDS011;22383;51.114;13.666;2023-05-10T00:06:59;2.35;;;1.40;;
36353;SDS011;22383;51.114;13.666;2023-05-10T00:09:26;3.92;;;1.52;;
36353;SDS011;22383;51.114;13.666;2023-05-10T00:11:53;2.63;;;1.40;;
36353;SDS011;22383;51.114;13.666;2023-05-10T00:14:21;5.63;;;1.27;;
36353;SDS011;22383;51.114;13.666;2023-05-10T00:16:48;2.38;;;1.08;;
36353;SDS011;22383;51.114;13.666;2023-05-10T00:19:17;3.42;;;1.27;;
36353;SDS011;22383;51.114;13.666;2023-05-10T00:21:48;3.90;;;1.65;;
36353;SDS011;22383;51.114;13.666;2023-05-10T00:24:15;2.17;;;1.27;;
36353;SDS011;22383;51.114;13.666;2023-05-10T00:26:43;5.47;;;1.73;;
36353;SDS011;22383;51.114;13.666;2023-05-10T00:29:10;1.77;;;1.20;;
36353;SDS011;22383;51.114;13.666;2023-05-10T00:31:37;2.85;;;1.60;;
36353;SDS011;22383;51.114;13.666;2023-05-10T00:34:05;4.47;;;1.08;;
36353;SDS011;22383;51.114;13.666;2023-05-10T00:36:32;6.32;;;1.85;;
36353;SDS011;22383;51.114;13.666;2023-05-10T00:39:06;3.78;;;1.63;;
36353;SDS011;22383;51.114;13.666;2023-05-10T00:41:33;3.08;;;1.65;;
36353;SDS011;22383;51.114;13.666;2023-05-10T00:44:05;3.53;;;1.48;;
36353;SDS011;22383;51.114;13.666;2023-05-10T00:46:32;2.15;;;1.30;;
36353;SDS011;22383;51.114;13.666;2023-05-10T00:49:00;2.58;;;1.30;;
36353;SDS011;22383;51.114;13.666;2023-05-10T00:51:29;2.42;;;1.42;;
36353;SDS011;22383;51.114;13.666;2023-05-10T00:53:59;2.35;;;1.50;;
36353;SDS011;22383;51.114;13.666;2023-05-10T00:56:48;1.90;;;1.20;;
36353;SDS011;22383;51.114;13.666;2023-05-10T00:59:21;6.70;;;1.60;;
36353;SDS011;22383;51.114;13.666;2023-05-10T01:01:49;4.38;;;1.95;;
36353;SDS011;22383;51.114;13.666;2023-05-10T01:04:16;3.50;;;1.67;;
36353;SDS011;22383;51.114;13.666;2023-05-10T01:06:43;3.70;;;1.38;;
36353;SDS011;22383;51.114;13.666;2023-05-10T01:09:10;2.40;;;1.10;;
36353;SDS011;22383;51.114;13.666;2023-05-10T01:11:38;3.05;;;1.60;;
36353;SDS011;22383;51.114;13.666;2023-05-10T01:14:06;3.38;;;1.40;;
36353;SDS011;22383;51.114;13.666;2023-05-10T01:19:05;2.30;;;1.23;;
36353;SDS011;22383;51.114;13.666;2023-05-10T01:36:05;1.85;;;1.00;;
36353;SDS011;22383;51.114;13.666;2023-05-10T01:38:42;3.83;;;1.48;;
36353;SDS011;22383;51.114;13.666;2023-05-10T01:46:35;1.05;;;0.95;;
36353;SDS011;22383;51.114;13.666;2023-05-10T01:49:11;2.92;;;1.20;;
36353;SDS011;22383;51.114;13.666;2023-05-10T01:51:52;3.00;;;1.50;;
36353;SDS011;22383;51.114;13.666;2023-05-10T01:54:25;3.65;;;1.20;;
36353;SDS011;22383;51.114;13.666;2023-05-10T01:56:56;5.43;;;1.65;;
36353;SDS011;22383;51.114;13.666;2023-05-10T01:59:30;1.80;;;1.13;;
36353;SDS011;22383;51.114;13.666;2023-05-10T02:02:09;4.63;;;2.05;;
36353;SDS011;22383;51.114;13.666;2023-05-10T02:04:45;5.32;;;1.20;;
36353;SDS011;22383;51.114;13.666;2023-05-10T02:07:21;2.58;;;1.30;;
36353;SDS011;22383;51.114;13.666;2023-05-10T02:09:52;3.63;;;1.20;;
36353;SDS011;22383;51.114;13.666;2023-05-10T02:12:20;2.17;;;1.17;;
36353;SDS011;22383;51.114;13.666;2023-05-10T02:14:50;2.30;;;1.13;;
36353;SDS011;22383;51.114;13.666;2023-05-10T02:17:19;1.70;;;1.17;;
36353;SDS011;22383;51.114;13.666;2023-05-10T02:19:50;2.08;;;1.30;;
36353;SDS011;22383;51.114;13.666;2023-05-10T02:24:46;3.83;;;1.27;;
36353;SDS011;22383;51.114;13.666;2023-05-10T02:27:15;3.30;;;1.50;;
36353;SDS011;22383;51.114;13.666;2023-05-10T02:29:42;2.90;;;1.15;;
36353;SDS011;22383;51.114;13.666;2023-05-10T02:32:11;6.40;;;1.35;;
36353;SDS011;22383;51.114;13.666;2023-05-10T02:34:45;2.83;;;1.20;;
36353;SDS011;22383;51.114;13.666;2023-05-10T02:37:19;2.28;;;1.30;;
36353;SDS011;22383;51.114;13.666;2023-05-10T02:39:49;3.50;;;1.00;;
36353;SDS011;22383;51.114;13.666;2023-05-10T02:42:18;3.05;;;1.42;;
36353;SDS011;22383;51.114;13.666;2023-05-10T02:44:56;1.73;;;1.20;;
36353;SDS011;22383;51.114;13.666;2023-05-10T02:47:28;2.65;;;1.40;;
36353;SDS011;22383;51.114;13.666;2023-05-10T02:49:58;1.90;;;1.15;;
36353;SDS011;22383;51.114;13.666;2023-05-10T02:52:28;3.83;;;1.90;;
36353;SDS011;22383;51.114;13.666;2023-05-10T02:55:14;2.90;;;1.27;;
36353;SDS011;22383;51.114;13.666;2023-05-10T02:57:47;2.83;;;1.48;;
36353;SDS011;22383;51.114;13.666;2023-05-10T03:00:17;3.47;;;1.25;;
36353;SDS011;22383;51.114;13.666;2023-05-10T03:02:53;3.17;;;1.67;;
36353;SDS011;22383;51.114;13.666;2023-05-10T03:05:30;2.72;;;1.23;;
36353;SDS011;22383;51.114;13.666;2023-05-10T03:08:00;3.40;;;1.48;;
36353;SDS011;22383;51.114;13.666;2023-05-10T03:10:38;2.80;;;1.00;;
36353;SDS011;22383;51.114;13.666;2023-05-10T03:13:29;3.30;;;1.55;;
36353;SDS011;22383;51.114;13.666;2023-05-10T03:16:14;2.33;;;1.35;;
36353;SDS011;22383;51.114;13.666;2023-05-10T03:18:50;2.70;;;1.70;;
36353;SDS011;22383;51.114;13.666;2023-05-10T03:21:24;2.33;;;1.02;;
36353;SDS011;22383;51.114;13.666;2023-05-10T03:23:58;2.75;;;1.27;;
36353;SDS011;22383;51.114;13.666;2023-05-10T03:26:31;3.00;;;1.63;;
36353;SDS011;22383;51.114;13.666;2023-05-10T03:29:08;2.83;;;1.45;;
36353;SDS011;22383;51.114;13.666;2023-05-10T03:31:39;3.58;;;1.80;;
36353;SDS011;22383;51.114;13.666;2023-05-10T03:34:07;2.13;;;1.45;;
36353;SDS011;22383;51.114;13.666;2023-05-10T03:36:34;4.70;;;1.77;;
36353;SDS011;22383;51.114;13.666;2023-05-10T03:39:01;2.90;;;1.60;;
36353;SDS011;22383;51.114;13.666;2023-05-10T03:41:42;1.45;;;1.15;;
36353;SDS011;22383;51.114;13.666;2023-05-10T03:44:10;5.78;;;1.88;;
36353;SDS011;22383;51.114;13.666;2023-05-10T03:46:40;3.10;;;1.42;;
36353;SDS011;22383;51.114;13.666;2023-05-10T03:49:19;2.28;;;1.27;;
36353;SDS011;22383;51.114;13.666;2023-05-10T03:51:46;1.63;;;1.27;;
36353;SDS011;22383;51.114;13.666;2023-05-10T03:54:13;3.65;;;1.58;;
36353;SDS011;22383;51.114;13.666;2023-05-10T03:56:40;5.53;;;1.60;;
36353;SDS011;22383;51.114;13.666;2023-05-10T03:59:10;2.85;;;1.33;;
36353;SDS011;22383;51.114;13.666;2023-05-10T04:01:43;3.15;;;1.30;;
36353;SDS011;22383;51.114;13.666;2023-05-10T04:04:11;1.60;;;1.15;;
36353;SDS011;22383;51.114;13.666;2023-05-10T04:06:39;3.15;;;1.50;;
36353;SDS011;22383;51.114;13.666;2023-05-10T04:09:06;3.17;;;1.20;;
36353;SDS011;22383;51.114;13.666;2023-05-10T04:11:35;3.83;;;1.10;;
36353;SDS011;22383;51.114;13.666;2023-05-10T04:14:02;2.33;;;1.23;;
36353;SDS011;22383;51.114;13.666;2023-05-10T04:16:32;2.17;;;1.23;;
36353;SDS011;22383;51.114;13.666;2023-05-10T04:19:08;5.75;;;1.35;;
36353;SDS011;22383;51.114;13.666;2023-05-10T04:21:36;3.33;;;1.30;;
36353;SDS011;22383;51.114;13.666;2023-05-10T04:24:03;4.00;;;1.40;;
36353;SDS011;22383;51.114;13.666;2023-05-10T04:26:30;2.15;;;1.27;;
36353;SDS011;22383;51.114;13.666;2023-05-10T04:28:58;4.70;;;1.45;;
36353;SDS011;22383;51.114;13.666;2023-05-10T04:31:28;3.97;;;1.17;;
36353;SDS011;22383;51.114;13.666;2023-05-10T04:33:55;2.25;;;1.40;;
36353;SDS011;22383;51.114;13.666;2023-05-10T04:36:22;2.17;;;1.08;;
36353;SDS011;22383;51.114;13.666;2023-05-10T04:38:51;2.55;;;1.33;;
36353;SDS011;22383;51.114;13.666;2023-05-10T04:41:21;2.00;;;1.73;;
36353;SDS011;22383;51.114;13.666;2023-05-10T04:43:50;5.32;;;1.10;;
36353;SDS011;22383;51.114;13.666;2023-05-10T04:46:21;2.50;;;1.48;;
36353;SDS011;22383;51.114;13.666;2023-05-10T04:48:52;2.53;;;1.02;;
36353;SDS011;22383;51.114;13.666;2023-05-10T04:51:28;2.13;;;1.33;;
36353;SDS011;22383;51.114;13.666;2023-05-10T04:54:02;1.92;;;1.20;;
36353;SDS011;22383;51.114;13.666;2023-05-10T04:56:35;3.42;;;1.30;;
36353;SDS011;22383;51.114;13.666;2023-05-10T04:59:05;7.82;;;1.20;;
36353;SDS011;22383;51.114;13.666;2023-05-10T05:01:32;4.93;;;1.42;;
36353;SDS011;22383;51.114;13.666;2023-05-10T05:04:05;3.22;;;1.20;;
36353;SDS011;22383;51.114;13.666;2023-05-10T05:06:33;2.42;;;1.15;;
36353;SDS011;22383;51.114;13.666;2023-05-10T05:09:02;6.45;;;1.55;;
36353;SDS011;22383;51.114;13.666;2023-05-10T05:11:32;1.98;;;1.55;;
36353;SDS011;22383;51.114;13.666;2023-05-10T05:14:02;4.95;;;1.58;;
36353;SDS011;22383;51.114;13.666;2023-05-10T05:16:32;3.03;;;1.25;;
36353;SDS011;22383;51.114;13.666;2023-05-10T05:19:00;1.40;;;1.10;;
36353;SDS011;22383;51.114;13.666;2023-05-10T05:21:35;2.55;;;1.23;;
36353;SDS011;22383;51.114;13.666;2023-05-10T05:24:05;1.58;;;1.13;;
36353;SDS011;22383;51.114;13.666;2023-05-10T05:26:43;5.03;;;1.08;;
36353;SDS011;22383;51.114;13.666;2023-05-10T05:29:11;10.30;;;1.48;;
36353;SDS011;22383;51.114;13.666;2023-05-10T05:31:40;1.75;;;1.08;;
36353;SDS011;22383;51.114;13.666;2023-05-10T05:34:07;2.53;;;1.35;;
36353;SDS011;22383;51.114;13.666;2023-05-10T05:36:41;2.42;;;1.20;;
36353;SDS011;22383;51.114;13.666;2023-05-10T05:39:10;3.58;;;1.13;;
36353;SDS011;22383;51.114;13.666;2023-05-10T05:41:38;1.35;;;1.05;;
36353;SDS011;22383;51.114;13.666;2023-05-10T05:44:18;4.30;;;1.08;;
36353;SDS011;22383;51.114;13.666;2023-05-10T05:46:48;5.03;;;1.38;;
36353;SDS011;22383;51.114;13.666;2023-05-10T05:49:18;2.10;;;0.93;;
36353;SDS011;22383;51.114;13.666;2023-05-10T05:51:46;3.10;;;1.38;;
36353;SDS011;22383;51.114;13.666;2023-05-10T05:54:25;2.03;;;1.40;;
36353;SDS011;22383;51.114;13.666;2023-05-10T05:56:58;3.78;;;1.20;;
36353;SDS011;22383;51.114;13.666;2023-05-10T05:59:31;1.75;;;1.10;;
36353;SDS011;22383;51.114;13.666;2023-05-10T06:02:01;3.65;;;1.75;;
36353;SDS011;22383;51.114;13.666;2023-05-10T06:04:31;2.67;;;1.20;;
36353;SDS011;22383;51.114;13.666;2023-05-10T06:06:58;1.80;;;1.08;;
36353;SDS011;22383;51.114;13.666;2023-05-10T06:09:29;3.85;;;1.10;;
36353;SDS011;22383;51.114;13.666;2023-05-10T06:11:59;1.45;;;1.00;;
36353;SDS011;22383;51.114;13.666;2023-05-10T06:14:29;3.25;;;1.58;;
36353;SDS011;22383;51.114;13.666;2023-05-10T06:16:59;2.45;;;1.52;;
36353;SDS011;22383;51.114;13.666;2023-05-10T06:19:27;2.97;;;1.63;;
36353;SDS011;22383;51.114;13.666;2023-05-10T06:21:54;4.28;;;1.55;;
36353;SDS011;22383;51.114;13.666;2023-05-10T06:24:24;2.95;;;1.52;;
36353;SDS011;22383;51.114;13.666;2023-05-10T06:26:57;2.00;;;1.40;;
36353;SDS011;22383;51.114;13.666;2023-05-10T06:29:26;3.00;;;1.20;;
36353;SDS011;22383;51.114;13.666;2023-05-10T06:31:55;3.80;;;1.25;;
36353;SDS011;22383;51.114;13.666;2023-05-10T06:34:23;3.05;;;1.38;;
36353;SDS011;22383;51.114;13.666;2023-05-10T06:36:54;1.38;;;1.05;;
36353;SDS011;22383;51.114;13.666;2023-05-10T06:39:31;2.33;;;1.30;;
36353;SDS011;22383;51.114;13.666;2023-05-10T06:42:06;3.58;;;1.33;;
36353;SDS011;22383;51.114;13.666;2023-05-10T06:44:36;1.40;;;0.90;;
36353;SDS011;22383;51.114;13.666;2023-05-10T06:47:03;1.92;;;1.50;;
36353;SDS011;22383;51.114;13.666;2023-05-10T06:49:30;3.45;;;1.38;;
36353;SDS011;22383;51.114;13.666;2023-05-10T06:51:57;4.70;;;1.63;;
36353;SDS011;22383;51.114;13.666;2023-05-10T06:54:25;2.75;;;1.30;;
36353;SDS011;22383;51.114;13.666;2023-05-10T06:56:57;2.30;;;1.17;;
36353;SDS011;22383;51.114;13.666;2023-05-10T06:59:24;1.80;;;1.20;;
36353;SDS011;22383;51.114;13.666;2023-05-10T07:01:58;2.45;;;1.40;;
36353;SDS011;22383;51.114;13.666;2023-05-10T07:04:27;2.63;;;1.40;;
36353;SDS011;22383;51.114;13.666;2023-05-10T07:07:03;2.42;;;1.67;;
36353;SDS011;22383;51.114;13.666;2023-05-10T07:09:36;3.17;;;1.10;;
36353;SDS011;22383;51.114;13.666;2023-05-10T07:12:05;3.22;;;1.58;;
36353;SDS011;22383;51.114;13.666;2023-05-10T07:14:44;2.33;;;1.17;;
36353;SDS011;22383;51.114;13.666;2023-05-10T07:17:14;5.10;;;1.45;;
36353;SDS011;22383;51.114;13.666;2023-05-10T07:19:41;4.32;;;1.52;;
36353;SDS011;22383;51.114;13.666;2023-05-10T07:22:08;3.63;;;1.10;;
36353;SDS011;22383;51.114;13.666;2023-05-10T07:24:37;3.45;;;1.50;;
36353;SDS011;22383;51.114;13.666;2023-05-10T07:27:08;2.60;;;1.45;;
36353;SDS011;22383;51.114;13.666;2023-05-10T07:29:38;5.13;;;1.55;;
36353;SDS011;22383;51.114;13.666;2023-05-10T07:32:08;2.45;;;1.38;;
36353;SDS011;22383;51.114;13.666;2023-05-10T07:34:35;2.08;;;1.20;;
36353;SDS011;22383;51.114;13.666;2023-05-10T07:37:02;4.30;;;1.55;;
36353;SDS011;22383;51.114;13.666;2023-05-10T07:39:34;2.30;;;1.35;;
36353;SDS011;22383;51.114;13.666;2023-05-10T07:42:02;2.38;;;1.48;;
36353;SDS011;22383;51.114;13.666;2023-05-10T07:44:34;6.95;;;1.73;;
36353;SDS011;22383;51.114;13.666;2023-05-10T07:47:02;4.05;;;1.52;;
36353;SDS011;22383;51.114;13.666;2023-05-10T07:49:29;2.95;;;1.67;;
36353;SDS011;22383;51.114;13.666;2023-05-10T07:52:00;4.20;;;1.40;;
36353;SDS011;22383;51.114;13.666;2023-05-10T07:54:27;2.97;;;1.60;;
36353;SDS011;22383;51.114;13.666;2023-05-10T07:56:56;2.35;;;1.75;;
36353;SDS011;22383;51.114;13.666;2023-05-10T07:59:26;2.50;;;1.67;;
36353;SDS011;22383;51.114;13.666;2023-05-10T08:01:55;3.05;;;1.33;;
36353;SDS011;22383;51.114;13.666;2023-05-10T08:04:23;4.32;;;1.65;;
36353;SDS011;22383;51.114;13.666;2023-05-10T08:09:23;4.03;;;1.65;;
36353;SDS011;22383;51.114;13.666;2023-05-10T08:11:53;2.78;;;1.60;;
36353;SDS011;22383;51.114;13.666;2023-05-10T08:14:21;2.95;;;1.80;;
36353;SDS011;22383;51.114;13.666;2023-05-10T08:19:15;2.13;;;1.50;;
36353;SDS011;22383;51.114;13.666;2023-05-10T08:21:45;4.22;;;1.50;;
36353;SDS011;22383;51.114;13.666;2023-05-10T08:24:15;4.18;;;1.58;;
36353;SDS011;22383;51.114;13.666;2023-05-10T08:26:47;3.08;;;1.80;;
36353;SDS011;22383;51.114;13.666;2023-05-10T08:29:18;3.63;;;1.65;;
36353;SDS011;22383;51.114;13.666;2023-05-10T08:31:46;1.92;;;1.70;;
36353;SDS011;22383;51.114;13.666;2023-05-10T08:34:14;3.50;;;1.33;;
36353;SDS011;22383;51.114;13.666;2023-05-10T08:36:45;2.40;;;1.58;;
36353;SDS011;22383;51.114;13.666;2023-05-10T08:39:13;3.40;;;1.55;;
36353;SDS011;22383;51.114;13.666;2023-05-10T08:42:00;2.33;;;1.30;;
36353;SDS011;22383;51.114;13.666;2023-05-10T08:44:30;1.77;;;1.20;;
36353;SDS011;22383;51.114;13.666;2023-05-10T08:46:59;2.70;;;1.70;;
36353;SDS011;22383;51.114;13.666;2023-05-10T08:49:30;2.92;;;1.73;;
36353;SDS011;22383;51.114;13.666;2023-05-10T08:51:58;6.25;;;1.67;;
36353;SDS011;22383;51.114;13.666;2023-05-10T08:54:31;4.28;;;2.03;;
36353;SDS011;22383;51.114;13.666;2023-05-10T08:57:00;2.55;;;1.45;;
36353;SDS011;22383;51.114;13.666;2023-05-10T08:59:30;4.20;;;2.03;;
36353;SDS011;22383;51.114;13.666;2023-05-10T09:01:57;3.17;;;1.88;;
36353;SDS011;22383;51.114;13.666;2023-05-10T09:04:26;2.13;;;1.40;;
36353;SDS011;22383;51.114;13.666;2023-05-10T09:06:55;2.78;;;1.80;;
36353;SDS011;22383;51.114;13.666;2023-05-10T09:09:23;2.08;;;1.40;;
36353;SDS011;22383;51.114;13.666;2023-05-10T09:11:51;4.35;;;1.92;;
36353;SDS011;22383;51.114;13.666;2023-05-10T09:14:19;2.00;;;1.58;;
36353;SDS011;22383;51.114;13.666;2023-05-10T09:19:14;3.42;;;1.98;;
36353;SDS011;22383;51.114;13.666;2023-05-10T09:21:42;3.80;;;1.60;;
36353;SDS011;22383;51.114;13.666;2023-05-10T09:24:11;2.47;;;1.73;;
36353;SDS011;22383;51.114;13.666;2023-05-10T09:26:45;5.72;;;1.85;;
36353;SDS011;22383;51.114;13.666;2023-05-10T09:29:16;3.90;;;1.60;;
36353;SDS011;22383;51.114;13.666;2023-05-10T09:34:19;2.78;;;1.60;;
36353;SDS011;22383;51.114;13.666;2023-05-10T09:37:06;3.00;;;1.70;;
36353;SDS011;22383;51.114;13.666;2023-05-10T09:39:35;2.75;;;1.98;;
36353;SDS011;22383;51.114;13.666;2023-05-10T09:42:10;5.55;;;1.52;;
36353;SDS011;22383;51.114;13.666;2023-05-10T09:44:37;2.70;;;1.80;;
36353;SDS011;22383;51.114;13.666;2023-05-10T09:47:06;1.92;;;1.65;;
36353;SDS011;22383;51.114;13.666;2023-05-10T09:49:33;2.65;;;1.42;;
36353;SDS011;22383;51.114;13.666;2023-05-10T09:52:02;5.78;;;1.50;;
36353;SDS011;22383;51.114;13.666;2023-05-10T09:54:33;5.13;;;1.85;;
36353;SDS011;22383;51.114;13.666;2023-05-10T09:57:01;2.47;;;1.50;;
36353;SDS011;22383;51.114;13.666;2023-05-10T09:59:32;3.90;;;1.52;;
36353;SDS011;22383;51.114;13.666;2023-05-10T10:01:59;6.00;;;1.67;;
36353;SDS011;22383;51.114;13.666;2023-05-10T10:04:27;4.45;;;1.40;;
36353;SDS011;22383;51.114;13.666;2023-05-10T10:09:30;1.85;;;1.27;;
36353;SDS011;22383;51.114;13.666;2023-05-10T10:12:03;3.35;;;1.50;;
36353;SDS011;22383;51.114;13.666;2023-05-10T10:14:31;2.22;;;1.52;;
36353;SDS011;22383;51.114;13.666;2023-05-10T10:17:00;2.35;;;1.33;;
36353;SDS011;22383;51.114;13.666;2023-05-10T10:19:32;2.97;;;1.50;;
36353;SDS011;22383;51.114;13.666;2023-05-10T10:22:00;2.00;;;1.50;;
36353;SDS011;22383;51.114;13.666;2023-05-10T10:24:28;2.13;;;1.52;;
36353;SDS011;22383;51.114;13.666;2023-05-10T10:26:59;2.85;;;1.60;;
36353;SDS011;22383;51.114;13.666;2023-05-10T10:29:39;2.90;;;1.55;;
36353;SDS011;22383;51.114;13.666;2023-05-10T10:32:20;2.13;;;1.40;;
36353;SDS011;22383;51.114;13.666;2023-05-10T10:34:56;9.20;;;2.90;;
36353;SDS011;22383;51.114;13.666;2023-05-10T10:37:23;6.53;;;1.90;;
36353;SDS011;22383;51.114;13.666;2023-05-10T10:40:22;3.58;;;2.17;;
36353;SDS011;22383;51.114;13.666;2023-05-10T10:42:51;4.03;;;2.13;;
36353;SDS011;22383;51.114;13.666;2023-05-10T10:47:47;2.95;;;1.65;;
36353;SDS011;22383;51.114;13.666;2023-05-10T10:50:14;3.15;;;2.00;;
36353;SDS011;22383;51.114;13.666;2023-05-10T10:52:43;2.22;;;1.65;;
36353;SDS011;22383;51.114;13.666;2023-05-10T10:55:15;1.40;;;1.30;;
36353;SDS011;22383;51.114;13.666;2023-05-10T10:57:50;5.15;;;1.95;;
36353;SDS011;22383;51.114;13.666;2023-05-10T11:00:22;5.53;;;1.50;;
36353;SDS011;22383;51.114;13.666;2023-05-10T11:05:37;2.40;;;1.70;;
36353;SDS011;22383;51.114;13.666;2023-05-10T11:08:08;2.85;;;1.63;;
36353;SDS011;22383;51.114;13.666;2023-05-10T11:10:39;3.25;;;1.63;;
36353;SDS011;22383;51.114;13.666;2023-05-10T11:13:15;2.47;;;1.80;;
36353;SDS011;22383;51.114;13.666;2023-05-10T11:15:47;3.22;;;1.88;;
36353;SDS011;22383;51.114;13.666;2023-05-10T11:18:19;3.35;;;1.42;;
36353;SDS011;22383;51.114;13.666;2023-05-10T11:21:00;4.70;;;2.33;;
36353;SDS011;22383;51.114;13.666;2023-05-10T11:26:15;5.03;;;1.77;;
36353;SDS011;22383;51.114;13.666;2023-05-10T11:28:43;7.07;;;2.53;;
36353;SDS011;22383;51.114;13.666;2023-05-10T11:31:15;4.63;;;2.38;;
36353;SDS011;22383;51.114;13.666;2023-05-10T11:33:47;5.60;;;1.90;;
36353;SDS011;22383;51.114;13.666;2023-05-10T11:36:34;3.10;;;2.08;;
36353;SDS011;22383;51.114;13.666;2023-05-10T11:39:04;2.95;;;1.80;;
36353;SDS011;22383;51.114;13.666;2023-05-10T11:41:34;4.40;;;2.08;;
36353;SDS011;22383;51.114;13.666;2023-05-10T11:46:29;2.33;;;1.73;;
36353;SDS011;22383;51.114;13.666;2023-05-10T11:48:59;2.35;;;1.70;;
36353;SDS011;22383;51.114;13.666;2023-05-10T11:51:29;19.88;;;2.33;;
36353;SDS011;22383;51.114;13.666;2023-05-10T11:53:59;6.78;;;2.05;;
36353;SDS011;22383;51.114;13.666;2023-05-10T11:56:26;5.28;;;2.00;;
36353;SDS011;22383;51.114;13.666;2023-05-10T11:58:57;3.35;;;1.60;;
36353;SDS011;22383;51.114;13.666;2023-05-10T12:01:25;2.75;;;1.90;;
36353;SDS011;22383;51.114;13.666;2023-05-10T12:03:57;4.68;;;2.22;;
36353;SDS011;22383;51.114;13.666;2023-05-10T12:06:28;2.80;;;1.80;;
36353;SDS011;22383;51.114;13.666;2023-05-10T12:08:59;2.35;;;1.55;;
36353;SDS011;22383;51.114;13.666;2023-05-10T12:13:55;3.03;;;2.00;;
36353;SDS011;22383;51.114;13.666;2023-05-10T12:16:28;4.32;;;2.10;;
36353;SDS011;22383;51.114;13.666;2023-05-10T12:18:59;3.72;;;1.85;;
36353;SDS011;22383;51.114;13.666;2023-05-10T12:21:28;2.28;;;1.63;;
36353;SDS011;22383;51.114;13.666;2023-05-10T12:23:59;3.63;;;1.80;;
36353;SDS011;22383;51.114;13.666;2023-05-10T12:26:28;2.90;;;2.10;;
36353;SDS011;22383;51.114;13.666;2023-05-10T12:29:17;4.68;;;1.98;;
36353;SDS011;22383;51.114;13.666;2023-05-10T12:31:59;6.57;;;2.30;;
36353;SDS011;22383;51.114;13.666;2023-05-10T12:34:35;4.22;;;1.67;;
36353;SDS011;22383;51.114;13.666;2023-05-10T12:37:05;4.40;;;2.53;;
36353;SDS011;22383;51.114;13.666;2023-05-10T12:39:43;4.85;;;2.15;;
36353;SDS011;22383;51.114;13.666;2023-05-10T12:42:14;4.15;;;1.70;;
36353;SDS011;22383;51.114;13.666;2023-05-10T12:44:48;2.17;;;1.58;;
36353;SDS011;22383;51.114;13.666;2023-05-10T12:47:15;2.78;;;1.88;;
36353;SDS011;22383;51.114;13.666;2023-05-10T12:49:43;4.50;;;2.13;;
36353;SDS011;22383;51.114;13.666;2023-05-10T12:52:10;3.15;;;2.30;;
36353;SDS011;22383;51.114;13.666;2023-05-10T12:54:38;1.85;;;1.60;;
36353;SDS011;22383;51.114;13.666;2023-05-10T12:57:05;4.00;;;2.00;;
36353;SDS011;22383;51.114;13.666;2023-05-10T12:59:32;3.65;;;1.92;;
36353;SDS011;22383;51.114;13.666;2023-05-10T13:02:03;9.63;;;2.30;;
36353;SDS011;22383;51.114;13.666;2023-05-10T13:04:30;8.77;;;1.85;;
36353;SDS011;22383;51.114;13.666;2023-05-10T13:06:57;2.65;;;1.98;;
36353;SDS011;22383;51.114;13.666;2023-05-10T13:09:26;2.58;;;2.00;;
36353;SDS011;22383;51.114;13.666;2023-05-10T13:11:53;4.72;;;1.98;;
36353;SDS011;22383;51.114;13.666;2023-05-10T13:14:22;4.85;;;2.00;;
36353;SDS011;22383;51.114;13.666;2023-05-10T13:16:49;4.10;;;2.03;;
36353;SDS011;22383;51.114;13.666;2023-05-10T13:19:17;5.10;;;2.28;;
36353;SDS011;22383;51.114;13.666;2023-05-10T13:21:44;3.13;;;2.10;;
36353;SDS011;22383;51.114;13.666;2023-05-10T13:24:13;5.93;;;2.63;;
36353;SDS011;22383;51.114;13.666;2023-05-10T13:26:40;4.18;;;2.67;;
36353;SDS011;22383;51.114;13.666;2023-05-10T13:29:08;3.60;;;2.08;;
36353;SDS011;22383;51.114;13.666;2023-05-10T13:34:03;2.75;;;2.13;;
36353;SDS011;22383;51.114;13.666;2023-05-10T13:38:58;6.32;;;2.42;;
36353;SDS011;22383;51.114;13.666;2023-05-10T13:41:25;5.50;;;2.85;;
36353;SDS011;22383;51.114;13.666;2023-05-10T13:43:54;6.85;;;3.05;;
36353;SDS011;22383;51.114;13.666;2023-05-10T13:46:21;6.72;;;2.45;;
36353;SDS011;22383;51.114;13.666;2023-05-10T13:48:48;2.22;;;1.90;;
36353;SDS011;22383;51.114;13.666;2023-05-10T13:51:16;5.45;;;2.53;;
36353;SDS011;22383;51.114;13.666;2023-05-10T13:53:45;7.03;;;2.65;;
36353;SDS011;22383;51.114;13.666;2023-05-10T13:56:14;5.10;;;2.33;;
36353;SDS011;22383;51.114;13.666;2023-05-10T13:58:41;3.45;;;2.03;;
36353;SDS011;22383;51.114;13.666;2023-05-10T14:01:08;3.35;;;2.08;;
36353;SDS011;22383;51.114;13.666;2023-05-10T14:03:41;3.10;;;1.85;;
36353;SDS011;22383;51.114;13.666;2023-05-10T14:06:09;4.05;;;2.03;;
36353;SDS011;22383;51.114;13.666;2023-05-10T14:08:36;5.15;;;3.00;;
36353;SDS011;22383;51.114;13.666;2023-05-10T14:11:03;6.93;;;2.65;;
36353;SDS011;22383;51.114;13.666;2023-05-10T14:13:33;3.30;;;2.20;;
36353;SDS011;22383;51.114;13.666;2023-05-10T14:16:03;2.45;;;1.83;;
36353;SDS011;22383;51.114;13.666;2023-05-10T14:18:33;5.43;;;2.17;;
36353;SDS011;22383;51.114;13.666;2023-05-10T14:21:01;6.38;;;2.30;;
36353;SDS011;22383;51.114;13.666;2023-05-10T14:23:30;5.65;;;2.45;;
36353;SDS011;22383;51.114;13.666;2023-05-10T14:25:58;4.03;;;1.90;;
36353;SDS011;22383;51.114;13.666;2023-05-10T14:28:25;2.50;;;1.77;;
36353;SDS011;22383;51.114;13.666;2023-05-10T14:30:53;4.40;;;2.17;;
36353;SDS011;22383;51.114;13.666;2023-05-10T14:33:20;3.13;;;2.28;;
36353;SDS011;22383;51.114;13.666;2023-05-10T14:35:47;2.70;;;2.10;;
36353;SDS011;22383;51.114;13.666;2023-05-10T14:38:15;3.05;;;2.20;;
36353;SDS011;22383;51.114;13.666;2023-05-10T14:40:42;3.38;;;1.65;;
36353;SDS011;22383;51.114;13.666;2023-05-10T14:43:09;3.80;;;2.00;;
36353;SDS011;22383;51.114;13.666;2023-05-10T14:45:37;4.28;;;2.30;;
36353;SDS011;22383;51.114;13.666;2023-05-10T14:48:04;5.53;;;1.85;;
36353;SDS011;22383;51.114;13.666;2023-05-10T14:50:32;6.07;;;2.58;;
36353;SDS011;22383;51.114;13.666;2023-05-10T14:53:03;3.90;;;2.00;;
36353;SDS011;22383;51.114;13.666;2023-05-10T14:55:30;4.88;;;2.47;;
36353;SDS011;22383;51.114;13.666;2023-05-10T14:57:57;6.03;;;2.22;;
36353;SDS011;22383;51.114;13.666;2023-05-10T15:00:25;5.65;;;2.03;;
36353;SDS011;22383;51.114;13.666;2023-05-10T15:02:54;3.30;;;2.03;;
36353;SDS011;22383;51.114;13.666;2023-05-10T15:05:21;3.45;;;1.65;;
36353;SDS011;22383;51.114;13.666;2023-05-10T15:07:52;5.15;;;2.22;;
36353;SDS011;22383;51.114;13.666;2023-05-10T15:10:19;2.63;;;1.80;;
36353;SDS011;22383;51.114;13.666;2023-05-10T15:12:46;3.22;;;1.73;;
36353;SDS011;22383;51.114;13.666;2023-05-10T15:15:13;4.63;;;1.77;;
36353;SDS011;22383;51.114;13.666;2023-05-10T15:17:41;3.53;;;1.90;;
36353;SDS011;22383;51.114;13.666;2023-05-10T15:20:08;2.30;;;1.60;;
36353;SDS011;22383;51.114;13.666;2023-05-10T15:22:35;3.63;;;1.77;;
36353;SDS011;22383;51.114;13.666;2023-05-10T15:25:02;3.60;;;2.25;;
36353;SDS011;22383;51.114;13.666;2023-05-10T15:27:33;2.97;;;1.80;;
36353;SDS011;22383;51.114;13.666;2023-05-10T15:30:01;3.67;;;1.73;;
36353;SDS011;22383;51.114;13.666;2023-05-10T15:32:28;3.65;;;1.80;;
36353;SDS011;22383;51.114;13.666;2023-05-10T15:34:57;4.28;;;1.50;;
36353;SDS011;22383;51.114;13.666;2023-05-10T15:37:24;3.85;;;1.33;;
36353;SDS011;22383;51.114;13.666;2023-05-10T15:39:52;2.55;;;1.67;;
36353;SDS011;22383;51.114;13.666;2023-05-10T15:42:23;2.67;;;1.50;;
36353;SDS011;22383;51.114;13.666;2023-05-10T15:44:57;5.35;;;1.63;;
36353;SDS011;22383;51.114;13.666;2023-05-10T15:47:27;4.18;;;1.50;;